sensor_id;sensor_type;location;lat;lon;timestamp;P1;durP1;ratioP1;P2;durP2;ratioP2
34573;SDS011;20809;49.594;8.734;2023-04-24T00:01:55;0.70;;;0.43;;
34573;SDS011;20809;49.594;8.734;2023-04-24T00:04:57;0.80;;;0.40;;
34573;SDS011;20809;49.594;8.734;2023-04-24T00:08:02;0.80;;;0.52;;
34573;SDS011;20809;49.594;8.734;2023-04-24T00:11:03;3.22;;;0.77;;
34573;SDS011;20809;49.594;8.734;2023-04-24T00:14:04;0.82;;;0.43;;
34573;SDS011;20809;49.594;8.734;2023-04-24T00:17:04;1.73;;;0.60;;
34573;SDS011;20809;49.594;8.734;2023-04-24T00:20:05;8.60;;;2.40;;
34573;SDS011;20809;49.594;8.734;2023-04-24T00:23:06;2.00;;;0.68;;
34573;SDS011;20809;49.594;8.734;2023-04-24T00:26:08;1.75;;;0.47;;
34573;SDS011;20809;49.594;8.734;2023-04-24T00:29:08;1.67;;;0.68;;
34573;SDS011;20809;49.594;8.734;2023-04-24T00:32:09;1.13;;;0.60;;
34573;SDS011;20809;49.594;8.734;2023-04-24T00:35:09;2.85;;;0.80;;
34573;SDS011;20809;49.594;8.734;2023-04-24T00:38:10;2.05;;;0.57;;
34573;SDS011;20809;49.594;8.734;2023-04-24T00:41:11;2.40;;;0.88;;
34573;SDS011;20809;49.594;8.734;2023-04-24T00:47:13;1.33;;;0.70;;
34573;SDS011;20809;49.594;8.734;2023-04-24T00:50:15;2.65;;;0.70;;
34573;SDS011;20809;49.594;8.734;2023-04-24T00:53:16;1.42;;;0.60;;
34573;SDS011;20809;49.594;8.734;2023-04-24T00:59:09;2.90;;;0.80;;
34573;SDS011;20809;49.594;8.734;2023-04-24T01:02:09;1.35;;;0.63;;
34573;SDS011;20809;49.594;8.734;2023-04-24T01:05:12;2.13;;;0.88;;
34573;SDS011;20809;49.594;8.734;2023-04-24T01:08:14;1.40;;;0.63;;
34573;SDS011;20809;49.594;8.734;2023-04-24T01:14:16;1.53;;;0.70;;
34573;SDS011;20809;49.594;8.734;2023-04-24T01:17:16;2.45;;;0.82;;
34573;SDS011;20809;49.594;8.734;2023-04-24T01:20:17;2.33;;;0.68;;
34573;SDS011;20809;49.594;8.734;2023-04-24T01:26:20;1.37;;;0.60;;
34573;SDS011;20809;49.594;8.734;2023-04-24T01:29:22;2.40;;;1.15;;
34573;SDS011;20809;49.594;8.734;2023-04-24T01:35:25;2.35;;;0.70;;
34573;SDS011;20809;49.594;8.734;2023-04-24T01:38:26;2.63;;;0.50;;
34573;SDS011;20809;49.594;8.734;2023-04-24T01:41:27;3.28;;;0.70;;
34573;SDS011;20809;49.594;8.734;2023-04-24T01:47:29;2.10;;;0.67;;
34573;SDS011;20809;49.594;8.734;2023-04-24T01:50:30;1.77;;;0.47;;
34573;SDS011;20809;49.594;8.734;2023-04-24T01:53:32;2.67;;;0.90;;
34573;SDS011;20809;49.594;8.734;2023-04-24T01:56:33;1.60;;;0.70;;
34573;SDS011;20809;49.594;8.734;2023-04-24T01:59:36;4.75;;;0.90;;
34573;SDS011;20809;49.594;8.734;2023-04-24T02:02:37;3.30;;;0.60;;
34573;SDS011;20809;49.594;8.734;2023-04-24T02:05:39;3.28;;;0.60;;
34573;SDS011;20809;49.594;8.734;2023-04-24T02:08:40;2.33;;;0.57;;
34573;SDS011;20809;49.594;8.734;2023-04-24T02:11:41;1.48;;;0.50;;
34573;SDS011;20809;49.594;8.734;2023-04-24T02:14:42;3.20;;;0.60;;
34573;SDS011;20809;49.594;8.734;2023-04-24T02:17:44;1.77;;;0.73;;
34573;SDS011;20809;49.594;8.734;2023-04-24T02:20:45;2.30;;;0.57;;
34573;SDS011;20809;49.594;8.734;2023-04-24T02:23:45;1.90;;;0.85;;
34573;SDS011;20809;49.594;8.734;2023-04-24T02:26:46;2.88;;;0.73;;
34573;SDS011;20809;49.594;8.734;2023-04-24T02:29:47;3.17;;;0.60;;
34573;SDS011;20809;49.594;8.734;2023-04-24T02:32:48;1.70;;;0.70;;
34573;SDS011;20809;49.594;8.734;2023-04-24T02:35:49;1.63;;;0.70;;
34573;SDS011;20809;49.594;8.734;2023-04-24T02:38:50;1.55;;;0.50;;
34573;SDS011;20809;49.594;8.734;2023-04-24T02:41:54;1.60;;;0.70;;
34573;SDS011;20809;49.594;8.734;2023-04-24T02:44:54;2.58;;;0.60;;
34573;SDS011;20809;49.594;8.734;2023-04-24T02:47:55;1.85;;;0.60;;
34573;SDS011;20809;49.594;8.734;2023-04-24T02:50:56;5.50;;;0.63;;
34573;SDS011;20809;49.594;8.734;2023-04-24T02:53:57;1.38;;;0.70;;
34573;SDS011;20809;49.594;8.734;2023-04-24T02:56:58;5.38;;;0.73;;
34573;SDS011;20809;49.594;8.734;2023-04-24T03:00:00;2.28;;;1.48;;
34573;SDS011;20809;49.594;8.734;2023-04-24T03:03:01;4.68;;;1.23;;
34573;SDS011;20809;49.594;8.734;2023-04-24T03:06:02;3.17;;;1.52;;
34573;SDS011;20809;49.594;8.734;2023-04-24T03:09:05;1.85;;;1.10;;
34573;SDS011;20809;49.594;8.734;2023-04-24T03:12:06;1.45;;;0.95;;
34573;SDS011;20809;49.594;8.734;2023-04-24T03:15:07;0.80;;;0.80;;
34573;SDS011;20809;49.594;8.734;2023-04-24T03:21:09;1.67;;;0.70;;
34573;SDS011;20809;49.594;8.734;2023-04-24T03:24:10;5.68;;;1.00;;
34573;SDS011;20809;49.594;8.734;2023-04-24T03:27:10;1.95;;;0.82;;
34573;SDS011;20809;49.594;8.734;2023-04-24T03:30:11;3.72;;;1.30;;
34573;SDS011;20809;49.594;8.734;2023-04-24T03:33:12;3.20;;;1.05;;
34573;SDS011;20809;49.594;8.734;2023-04-24T03:36:13;1.63;;;1.43;;
34573;SDS011;20809;49.594;8.734;2023-04-24T03:39:13;2.67;;;1.60;;
34573;SDS011;20809;49.594;8.734;2023-04-24T03:42:14;2.22;;;1.40;;
34573;SDS011;20809;49.594;8.734;2023-04-24T03:45:15;2.17;;;1.85;;
34573;SDS011;20809;49.594;8.734;2023-04-24T03:48:16;1.92;;;1.33;;
34573;SDS011;20809;49.594;8.734;2023-04-24T03:51:16;4.47;;;2.42;;
34573;SDS011;20809;49.594;8.734;2023-04-24T03:54:17;4.60;;;2.92;;
34573;SDS011;20809;49.594;8.734;2023-04-24T04:00:19;1.60;;;1.50;;
34573;SDS011;20809;49.594;8.734;2023-04-24T04:03:21;2.78;;;1.60;;
34573;SDS011;20809;49.594;8.734;2023-04-24T04:06:21;4.50;;;1.80;;
34573;SDS011;20809;49.594;8.734;2023-04-24T04:09:22;2.50;;;1.80;;
34573;SDS011;20809;49.594;8.734;2023-04-24T04:12:23;2.65;;;2.05;;
34573;SDS011;20809;49.594;8.734;2023-04-24T04:15:24;6.30;;;2.78;;
34573;SDS011;20809;49.594;8.734;2023-04-24T04:18:25;2.20;;;1.73;;
34573;SDS011;20809;49.594;8.734;2023-04-24T04:21:26;2.60;;;2.00;;
34573;SDS011;20809;49.594;8.734;2023-04-24T04:24:27;3.55;;;2.35;;
34573;SDS011;20809;49.594;8.734;2023-04-24T04:30:32;2.80;;;2.35;;
34573;SDS011;20809;49.594;8.734;2023-04-24T04:33:33;2.70;;;2.50;;
34573;SDS011;20809;49.594;8.734;2023-04-24T04:36:36;5.10;;;2.35;;
34573;SDS011;20809;49.594;8.734;2023-04-24T04:39:40;7.20;;;3.70;;
34573;SDS011;20809;49.594;8.734;2023-04-24T04:42:40;4.68;;;2.88;;
34573;SDS011;20809;49.594;8.734;2023-04-24T04:45:42;5.30;;;2.95;;
34573;SDS011;20809;49.594;8.734;2023-04-24T04:48:43;3.05;;;2.60;;
34573;SDS011;20809;49.594;8.734;2023-04-24T04:51:44;5.45;;;2.78;;
34573;SDS011;20809;49.594;8.734;2023-04-24T04:57:50;4.00;;;2.97;;
34573;SDS011;20809;49.594;8.734;2023-04-24T05:00:51;3.47;;;3.17;;
34573;SDS011;20809;49.594;8.734;2023-04-24T05:03:52;3.88;;;3.13;;
34573;SDS011;20809;49.594;8.734;2023-04-24T05:06:53;4.55;;;3.00;;
34573;SDS011;20809;49.594;8.734;2023-04-24T05:09:54;3.55;;;3.25;;
34573;SDS011;20809;49.594;8.734;2023-04-24T05:12:54;3.30;;;2.97;;
34573;SDS011;20809;49.594;8.734;2023-04-24T05:15:55;4.50;;;3.40;;
34573;SDS011;20809;49.594;8.734;2023-04-24T05:18:57;4.60;;;2.63;;
34573;SDS011;20809;49.594;8.734;2023-04-24T05:21:58;2.88;;;2.65;;
34573;SDS011;20809;49.594;8.734;2023-04-24T05:24:59;3.17;;;2.75;;
34573;SDS011;20809;49.594;8.734;2023-04-24T05:28:00;3.13;;;2.53;;
34573;SDS011;20809;49.594;8.734;2023-04-24T05:31:02;2.78;;;2.47;;
34573;SDS011;20809;49.594;8.734;2023-04-24T05:34:06;2.40;;;2.20;;
34573;SDS011;20809;49.594;8.734;2023-04-24T05:37:07;1.73;;;1.63;;
34573;SDS011;20809;49.594;8.734;2023-04-24T05:40:10;1.90;;;1.50;;
34573;SDS011;20809;49.594;8.734;2023-04-24T05:43:11;4.38;;;1.30;;
34573;SDS011;20809;49.594;8.734;2023-04-24T05:46:12;1.58;;;1.48;;
34573;SDS011;20809;49.594;8.734;2023-04-24T05:49:13;1.92;;;1.45;;
34573;SDS011;20809;49.594;8.734;2023-04-24T05:52:14;1.80;;;1.70;;
34573;SDS011;20809;49.594;8.734;2023-04-24T05:55:15;2.35;;;2.15;;
34573;SDS011;20809;49.594;8.734;2023-04-24T05:58:18;1.80;;;1.45;;
34573;SDS011;20809;49.594;8.734;2023-04-24T06:01:19;3.03;;;1.48;;
34573;SDS011;20809;49.594;8.734;2023-04-24T06:04:20;1.92;;;1.80;;
34573;SDS011;20809;49.594;8.734;2023-04-24T06:07:21;3.85;;;1.58;;
34573;SDS011;20809;49.594;8.734;2023-04-24T06:10:21;1.92;;;1.80;;
34573;SDS011;20809;49.594;8.734;2023-04-24T06:13:22;2.65;;;1.83;;
34573;SDS011;20809;49.594;8.734;2023-04-24T06:16:23;2.22;;;2.03;;
34573;SDS011;20809;49.594;8.734;2023-04-24T06:19:24;2.22;;;1.85;;
34573;SDS011;20809;49.594;8.734;2023-04-24T06:22:25;3.30;;;2.03;;
34573;SDS011;20809;49.594;8.734;2023-04-24T06:25:28;4.45;;;2.30;;
34573;SDS011;20809;49.594;8.734;2023-04-24T06:28:29;2.72;;;2.40;;
34573;SDS011;20809;49.594;8.734;2023-04-24T06:31:30;3.50;;;2.55;;
34573;SDS011;20809;49.594;8.734;2023-04-24T06:34:35;2.78;;;2.58;;
34573;SDS011;20809;49.594;8.734;2023-04-24T06:37:39;4.32;;;2.65;;
34573;SDS011;20809;49.594;8.734;2023-04-24T06:40:41;3.45;;;3.13;;
34573;SDS011;20809;49.594;8.734;2023-04-24T06:43:42;5.68;;;3.50;;
34573;SDS011;20809;49.594;8.734;2023-04-24T06:46:43;4.50;;;3.28;;
34573;SDS011;20809;49.594;8.734;2023-04-24T06:49:44;4.80;;;3.25;;
34573;SDS011;20809;49.594;8.734;2023-04-24T06:52:53;5.63;;;3.03;;
34573;SDS011;20809;49.594;8.734;2023-04-24T06:55:53;3.92;;;3.42;;
34573;SDS011;20809;49.594;8.734;2023-04-24T06:58:55;3.28;;;2.72;;
34573;SDS011;20809;49.594;8.734;2023-04-24T07:01:58;5.30;;;3.13;;
34573;SDS011;20809;49.594;8.734;2023-04-24T07:04:59;3.78;;;3.03;;
34573;SDS011;20809;49.594;8.734;2023-04-24T07:08:01;6.43;;;3.20;;
34573;SDS011;20809;49.594;8.734;2023-04-24T07:11:03;3.38;;;2.85;;
34573;SDS011;20809;49.594;8.734;2023-04-24T07:14:04;3.25;;;2.95;;
34573;SDS011;20809;49.594;8.734;2023-04-24T07:17:05;5.22;;;2.95;;
34573;SDS011;20809;49.594;8.734;2023-04-24T07:20:06;3.22;;;2.92;;
34573;SDS011;20809;49.594;8.734;2023-04-24T07:23:10;8.95;;;3.03;;
34573;SDS011;20809;49.594;8.734;2023-04-24T07:26:11;4.25;;;2.08;;
34573;SDS011;20809;49.594;8.734;2023-04-24T07:29:12;1.65;;;1.55;;
34573;SDS011;20809;49.594;8.734;2023-04-24T07:32:14;1.85;;;1.60;;
34573;SDS011;20809;49.594;8.734;2023-04-24T07:35:15;3.47;;;2.10;;
34573;SDS011;20809;49.594;8.734;2023-04-24T07:41:20;1.13;;;0.90;;
34573;SDS011;20809;49.594;8.734;2023-04-24T07:44:21;2.90;;;1.00;;
34573;SDS011;20809;49.594;8.734;2023-04-24T07:47:22;3.53;;;1.10;;
34573;SDS011;20809;49.594;8.734;2023-04-24T07:50:23;1.63;;;1.30;;
34573;SDS011;20809;49.594;8.734;2023-04-24T07:53:24;1.30;;;1.20;;
34573;SDS011;20809;49.594;8.734;2023-04-24T07:56:25;0.80;;;0.80;;
34573;SDS011;20809;49.594;8.734;2023-04-24T07:59:26;0.90;;;0.90;;
34573;SDS011;20809;49.594;8.734;2023-04-24T08:05:29;2.00;;;0.98;;
34573;SDS011;20809;49.594;8.734;2023-04-24T08:08:30;2.35;;;1.58;;
34573;SDS011;20809;49.594;8.734;2023-04-24T08:11:31;3.20;;;1.58;;
34573;SDS011;20809;49.594;8.734;2023-04-24T08:14:32;1.40;;;1.10;;
34573;SDS011;20809;49.594;8.734;2023-04-24T08:17:36;1.38;;;1.13;;
34573;SDS011;20809;49.594;8.734;2023-04-24T08:20:37;4.30;;;0.95;;
34573;SDS011;20809;49.594;8.734;2023-04-24T08:23:38;2.10;;;1.30;;
34573;SDS011;20809;49.594;8.734;2023-04-24T08:26:39;2.85;;;1.92;;
34573;SDS011;20809;49.594;8.734;2023-04-24T08:32:41;2.10;;;1.30;;
34573;SDS011;20809;49.594;8.734;2023-04-24T08:35:44;2.55;;;1.70;;
34573;SDS011;20809;49.594;8.734;2023-04-24T08:38:50;1.80;;;1.60;;
34573;SDS011;20809;49.594;8.734;2023-04-24T08:41:52;1.30;;;1.20;;
34573;SDS011;20809;49.594;8.734;2023-04-24T08:44:56;3.13;;;1.58;;
34573;SDS011;20809;49.594;8.734;2023-04-24T08:47:58;4.82;;;1.50;;
34573;SDS011;20809;49.594;8.734;2023-04-24T08:50:59;1.48;;;1.38;;
34573;SDS011;20809;49.594;8.734;2023-04-24T08:54:02;2.67;;;1.55;;
34573;SDS011;20809;49.594;8.734;2023-04-24T08:57:04;4.82;;;2.45;;
34573;SDS011;20809;49.594;8.734;2023-04-24T09:00:11;2.10;;;1.60;;
34573;SDS011;20809;49.594;8.734;2023-04-24T09:06:16;2.25;;;1.70;;
34573;SDS011;20809;49.594;8.734;2023-04-24T09:09:19;1.70;;;1.60;;
34573;SDS011;20809;49.594;8.734;2023-04-24T09:12:20;1.73;;;1.63;;
34573;SDS011;20809;49.594;8.734;2023-04-24T09:15:21;3.40;;;1.88;;
34573;SDS011;20809;49.594;8.734;2023-04-24T09:18:22;2.95;;;2.00;;
34573;SDS011;20809;49.594;8.734;2023-04-24T09:21:23;3.47;;;2.15;;
34573;SDS011;20809;49.594;8.734;2023-04-24T09:24:24;4.32;;;2.13;;
34573;SDS011;20809;49.594;8.734;2023-04-24T09:27:28;3.22;;;2.90;;
34573;SDS011;20809;49.594;8.734;2023-04-24T09:30:29;2.35;;;2.15;;
34573;SDS011;20809;49.594;8.734;2023-04-24T09:33:30;2.70;;;2.42;;
34573;SDS011;20809;49.594;8.734;2023-04-24T09:36:32;6.72;;;2.00;;
34573;SDS011;20809;49.594;8.734;2023-04-24T09:39:34;2.97;;;1.70;;
34573;SDS011;20809;49.594;8.734;2023-04-24T09:42:35;1.90;;;1.70;;
34573;SDS011;20809;49.594;8.734;2023-04-24T09:45:36;2.42;;;1.58;;
34573;SDS011;20809;49.594;8.734;2023-04-24T09:48:38;2.15;;;1.30;;
34573;SDS011;20809;49.594;8.734;2023-04-24T09:51:39;1.63;;;1.42;;
34573;SDS011;20809;49.594;8.734;2023-04-24T09:54:40;2.60;;;1.88;;
34573;SDS011;20809;49.594;8.734;2023-04-24T09:57:51;2.63;;;1.67;;
34573;SDS011;20809;49.594;8.734;2023-04-24T10:00:54;2.40;;;1.60;;
34573;SDS011;20809;49.594;8.734;2023-04-24T10:03:59;3.67;;;1.45;;
34573;SDS011;20809;49.594;8.734;2023-04-24T10:07:00;3.00;;;1.50;;
34573;SDS011;20809;49.594;8.734;2023-04-24T10:10:06;2.72;;;1.52;;
34573;SDS011;20809;49.594;8.734;2023-04-24T10:13:08;7.70;;;1.50;;
34573;SDS011;20809;49.594;8.734;2023-04-24T10:16:10;3.22;;;1.75;;
34573;SDS011;20809;49.594;8.734;2023-04-24T10:19:11;2.17;;;1.67;;
34573;SDS011;20809;49.594;8.734;2023-04-24T10:22:15;2.00;;;1.88;;
34573;SDS011;20809;49.594;8.734;2023-04-24T10:25:18;2.10;;;1.67;;
34573;SDS011;20809;49.594;8.734;2023-04-24T10:28:21;2.10;;;1.90;;
34573;SDS011;20809;49.594;8.734;2023-04-24T10:31:24;2.20;;;2.00;;
34573;SDS011;20809;49.594;8.734;2023-04-24T10:34:26;3.05;;;1.80;;
34573;SDS011;20809;49.594;8.734;2023-04-24T10:37:27;2.50;;;1.50;;
34573;SDS011;20809;49.594;8.734;2023-04-24T10:40:35;2.05;;;1.50;;
34573;SDS011;20809;49.594;8.734;2023-04-24T10:43:37;2.17;;;1.92;;
34573;SDS011;20809;49.594;8.734;2023-04-24T10:46:44;2.85;;;2.08;;
34573;SDS011;20809;49.594;8.734;2023-04-24T10:49:52;1.35;;;1.25;;
34573;SDS011;20809;49.594;8.734;2023-04-24T10:52:55;1.83;;;1.20;;
34573;SDS011;20809;49.594;8.734;2023-04-24T10:56:12;2.42;;;1.52;;
34573;SDS011;20809;49.594;8.734;2023-04-24T10:59:24;2.70;;;1.40;;
34573;SDS011;20809;49.594;8.734;2023-04-24T11:02:35;4.15;;;1.40;;
34573;SDS011;20809;49.594;8.734;2023-04-24T11:08:52;2.40;;;1.55;;
34573;SDS011;20809;49.594;8.734;2023-04-24T11:12:07;2.05;;;1.63;;
34573;SDS011;20809;49.594;8.734;2023-04-24T11:15:13;2.08;;;1.90;;
34573;SDS011;20809;49.594;8.734;2023-04-24T11:18:17;2.85;;;1.95;;
34573;SDS011;20809;49.594;8.734;2023-04-24T11:21:18;2.22;;;1.80;;
34573;SDS011;20809;49.594;8.734;2023-04-24T11:24:26;2.47;;;2.28;;
34573;SDS011;20809;49.594;8.734;2023-04-24T11:27:41;3.15;;;1.90;;
34573;SDS011;20809;49.594;8.734;2023-04-24T11:30:42;3.35;;;1.95;;
34573;SDS011;20809;49.594;8.734;2023-04-24T11:33:43;2.92;;;2.20;;
34573;SDS011;20809;49.594;8.734;2023-04-24T11:36:47;3.88;;;2.40;;
34573;SDS011;20809;49.594;8.734;2023-04-24T11:39:55;2.13;;;1.70;;
34573;SDS011;20809;49.594;8.734;2023-04-24T11:42:59;4.07;;;2.00;;
34573;SDS011;20809;49.594;8.734;2023-04-24T11:46:00;2.83;;;1.92;;
34573;SDS011;20809;49.594;8.734;2023-04-24T11:49:01;2.20;;;2.00;;
34573;SDS011;20809;49.594;8.734;2023-04-24T11:52:02;2.67;;;2.45;;
34573;SDS011;20809;49.594;8.734;2023-04-24T11:55:05;3.22;;;2.35;;
34573;SDS011;20809;49.594;8.734;2023-04-24T11:58:27;4.88;;;2.50;;
34573;SDS011;20809;49.594;8.734;2023-04-24T12:01:28;2.30;;;2.00;;
34573;SDS011;20809;49.594;8.734;2023-04-24T12:04:38;3.35;;;2.67;;
34573;SDS011;20809;49.594;8.734;2023-04-24T12:07:41;5.20;;;2.42;;
34573;SDS011;20809;49.594;8.734;2023-04-24T12:10:45;2.75;;;2.33;;
34573;SDS011;20809;49.594;8.734;2023-04-24T12:13:51;2.08;;;1.85;;
34573;SDS011;20809;49.594;8.734;2023-04-24T12:16:52;2.85;;;2.00;;
34573;SDS011;20809;49.594;8.734;2023-04-24T12:19:56;2.60;;;2.30;;
34573;SDS011;20809;49.594;8.734;2023-04-24T12:23:02;3.15;;;1.98;;
34573;SDS011;20809;49.594;8.734;2023-04-24T12:26:03;2.53;;;2.20;;
34573;SDS011;20809;49.594;8.734;2023-04-24T12:29:04;3.05;;;2.35;;
34573;SDS011;20809;49.594;8.734;2023-04-24T12:32:15;5.82;;;2.35;;
34573;SDS011;20809;49.594;8.734;2023-04-24T12:35:20;3.20;;;2.30;;
34573;SDS011;20809;49.594;8.734;2023-04-24T12:38:23;2.97;;;2.13;;
34573;SDS011;20809;49.594;8.734;2023-04-24T12:41:25;2.83;;;1.88;;
34573;SDS011;20809;49.594;8.734;2023-04-24T12:44:29;3.70;;;2.53;;
34573;SDS011;20809;49.594;8.734;2023-04-24T12:47:31;4.38;;;2.72;;
34573;SDS011;20809;49.594;8.734;2023-04-24T12:50:33;4.60;;;2.47;;
34573;SDS011;20809;49.594;8.734;2023-04-24T12:53:34;3.13;;;2.40;;
34573;SDS011;20809;49.594;8.734;2023-04-24T12:56:35;3.78;;;2.45;;
34573;SDS011;20809;49.594;8.734;2023-04-24T12:59:39;4.50;;;2.22;;
34573;SDS011;20809;49.594;8.734;2023-04-24T13:02:40;3.72;;;2.53;;
34573;SDS011;20809;49.594;8.734;2023-04-24T13:05:41;4.90;;;2.50;;
34573;SDS011;20809;49.594;8.734;2023-04-24T13:08:48;4.50;;;2.38;;
34573;SDS011;20809;49.594;8.734;2023-04-24T13:11:55;2.30;;;2.10;;
34573;SDS011;20809;49.594;8.734;2023-04-24T13:14:57;4.57;;;2.70;;
34573;SDS011;20809;49.594;8.734;2023-04-24T13:17:58;4.90;;;2.40;;
34573;SDS011;20809;49.594;8.734;2023-04-24T13:20:59;4.00;;;2.38;;
34573;SDS011;20809;49.594;8.734;2023-04-24T13:24:00;6.80;;;2.47;;
34573;SDS011;20809;49.594;8.734;2023-04-24T13:27:22;4.25;;;2.50;;
34573;SDS011;20809;49.594;8.734;2023-04-24T13:30:23;5.97;;;2.53;;
34573;SDS011;20809;49.594;8.734;2023-04-24T13:33:53;6.72;;;3.13;;
34573;SDS011;20809;49.594;8.734;2023-04-24T13:36:57;6.68;;;2.95;;
34573;SDS011;20809;49.594;8.734;2023-04-24T13:39:58;2.80;;;2.50;;
34573;SDS011;20809;49.594;8.734;2023-04-24T13:42:59;3.35;;;2.25;;
34573;SDS011;20809;49.594;8.734;2023-04-24T13:46:00;3.58;;;2.35;;
34573;SDS011;20809;49.594;8.734;2023-04-24T13:49:03;8.27;;;3.30;;
34573;SDS011;20809;49.594;8.734;2023-04-24T13:55:05;2.72;;;2.17;;
34573;SDS011;20809;49.594;8.734;2023-04-24T13:58:06;2.60;;;2.35;;
34573;SDS011;20809;49.594;8.734;2023-04-24T14:01:07;3.53;;;2.67;;
34573;SDS011;20809;49.594;8.734;2023-04-24T14:04:09;3.25;;;2.17;;
34573;SDS011;20809;49.594;8.734;2023-04-24T14:07:10;2.55;;;2.30;;
34573;SDS011;20809;49.594;8.734;2023-04-24T14:10:11;3.40;;;2.55;;
34573;SDS011;20809;49.594;8.734;2023-04-24T14:13:12;5.13;;;2.53;;
34573;SDS011;20809;49.594;8.734;2023-04-24T14:16:13;2.53;;;1.77;;
34573;SDS011;20809;49.594;8.734;2023-04-24T14:22:15;2.53;;;1.87;;
34573;SDS011;20809;49.594;8.734;2023-04-24T14:25:16;6.45;;;2.42;;
34573;SDS011;20809;49.594;8.734;2023-04-24T14:28:18;4.63;;;3.38;;
34573;SDS011;20809;49.594;8.734;2023-04-24T14:31:20;3.03;;;2.30;;
34573;SDS011;20809;49.594;8.734;2023-04-24T14:34:21;2.97;;;2.20;;
34573;SDS011;20809;49.594;8.734;2023-04-24T14:37:22;2.85;;;2.38;;
34573;SDS011;20809;49.594;8.734;2023-04-24T14:40:23;5.93;;;2.20;;
34573;SDS011;20809;49.594;8.734;2023-04-24T14:43:24;4.22;;;2.65;;
34573;SDS011;20809;49.594;8.734;2023-04-24T14:46:25;2.30;;;2.08;;
34573;SDS011;20809;49.594;8.734;2023-04-24T14:49:29;3.00;;;2.17;;
34573;SDS011;20809;49.594;8.734;2023-04-24T14:52:30;2.20;;;2.00;;
34573;SDS011;20809;49.594;8.734;2023-04-24T14:55:31;3.38;;;2.17;;
34573;SDS011;20809;49.594;8.734;2023-04-24T14:58:34;2.20;;;2.00;;
34573;SDS011;20809;49.594;8.734;2023-04-24T15:01:35;2.67;;;2.47;;
34573;SDS011;20809;49.594;8.734;2023-04-24T15:04:36;2.35;;;2.15;;
34573;SDS011;20809;49.594;8.734;2023-04-24T15:07:37;2.17;;;1.95;;
34573;SDS011;20809;49.594;8.734;2023-04-24T15:10:39;3.05;;;2.10;;
34573;SDS011;20809;49.594;8.734;2023-04-24T15:13:40;2.60;;;2.33;;
34573;SDS011;20809;49.594;8.734;2023-04-24T15:16:41;2.60;;;2.30;;
34573;SDS011;20809;49.594;8.734;2023-04-24T15:19:42;4.93;;;3.45;;
34573;SDS011;20809;49.594;8.734;2023-04-24T15:22:43;3.13;;;2.13;;
34573;SDS011;20809;49.594;8.734;2023-04-24T15:25:44;3.03;;;2.13;;
34573;SDS011;20809;49.594;8.734;2023-04-24T15:28:45;2.20;;;2.00;;
34573;SDS011;20809;49.594;8.734;2023-04-24T15:31:46;5.25;;;3.53;;
34573;SDS011;20809;49.594;8.734;2023-04-24T15:34:47;5.10;;;2.78;;
34573;SDS011;20809;49.594;8.734;2023-04-24T15:37:48;2.53;;;2.33;;
34573;SDS011;20809;49.594;8.734;2023-04-24T15:40:49;3.20;;;2.33;;
34573;SDS011;20809;49.594;8.734;2023-04-24T15:43:51;2.50;;;2.30;;
34573;SDS011;20809;49.594;8.734;2023-04-24T15:46:52;3.05;;;2.10;;
34573;SDS011;20809;49.594;8.734;2023-04-24T15:49:53;3.15;;;1.95;;
34573;SDS011;20809;49.594;8.734;2023-04-24T15:52:54;4.47;;;2.40;;
34573;SDS011;20809;49.594;8.734;2023-04-24T15:55:54;2.58;;;2.38;;
34573;SDS011;20809;49.594;8.734;2023-04-24T15:58:58;2.65;;;2.20;;
34573;SDS011;20809;49.594;8.734;2023-04-24T16:05:01;3.85;;;2.42;;
34573;SDS011;20809;49.594;8.734;2023-04-24T16:08:02;2.85;;;2.65;;
34573;SDS011;20809;49.594;8.734;2023-04-24T16:11:06;2.78;;;2.58;;
34573;SDS011;20809;49.594;8.734;2023-04-24T16:14:06;3.22;;;2.92;;
34573;SDS011;20809;49.594;8.734;2023-04-24T16:17:07;2.70;;;2.38;;
34573;SDS011;20809;49.594;8.734;2023-04-24T16:20:09;4.28;;;2.78;;
34573;SDS011;20809;49.594;8.734;2023-04-24T16:23:10;3.60;;;2.50;;
34573;SDS011;20809;49.594;8.734;2023-04-24T16:26:10;3.83;;;2.33;;
34573;SDS011;20809;49.594;8.734;2023-04-24T16:29:12;4.05;;;2.70;;
34573;SDS011;20809;49.594;8.734;2023-04-24T16:32:14;3.42;;;3.08;;
34573;SDS011;20809;49.594;8.734;2023-04-24T16:35:15;5.65;;;2.60;;
34573;SDS011;20809;49.594;8.734;2023-04-24T16:38:16;3.80;;;2.70;;
34573;SDS011;20809;49.594;8.734;2023-04-24T16:41:18;4.28;;;2.25;;
34573;SDS011;20809;49.594;8.734;2023-04-24T16:44:22;5.97;;;2.60;;
34573;SDS011;20809;49.594;8.734;2023-04-24T16:47:23;4.22;;;3.08;;
34573;SDS011;20809;49.594;8.734;2023-04-24T16:50:23;3.42;;;2.45;;
34573;SDS011;20809;49.594;8.734;2023-04-24T16:53:27;3.35;;;2.25;;
34573;SDS011;20809;49.594;8.734;2023-04-24T16:56:28;3.85;;;2.53;;
34573;SDS011;20809;49.594;8.734;2023-04-24T17:02:34;2.90;;;2.40;;
34573;SDS011;20809;49.594;8.734;2023-04-24T17:05:35;4.75;;;3.45;;
34573;SDS011;20809;49.594;8.734;2023-04-24T17:11:37;2.43;;;2.23;;
34573;SDS011;20809;49.594;8.734;2023-04-24T17:14:38;3.75;;;2.15;;
34573;SDS011;20809;49.594;8.734;2023-04-24T17:17:41;7.28;;;2.35;;
34573;SDS011;20809;49.594;8.734;2023-04-24T17:20:50;2.85;;;2.22;;
34573;SDS011;20809;49.594;8.734;2023-04-24T17:23:52;4.57;;;2.33;;
34573;SDS011;20809;49.594;8.734;2023-04-24T17:26:55;2.75;;;2.10;;
34573;SDS011;20809;49.594;8.734;2023-04-24T17:29:57;4.57;;;2.25;;
34573;SDS011;20809;49.594;8.734;2023-04-24T17:32:58;6.35;;;2.50;;
34573;SDS011;20809;49.594;8.734;2023-04-24T17:36:01;2.35;;;2.15;;
34573;SDS011;20809;49.594;8.734;2023-04-24T17:39:03;3.17;;;2.30;;
34573;SDS011;20809;49.594;8.734;2023-04-24T17:42:09;4.05;;;2.00;;
34573;SDS011;20809;49.594;8.734;2023-04-24T17:45:10;3.33;;;2.22;;
34573;SDS011;20809;49.594;8.734;2023-04-24T17:48:14;2.47;;;2.00;;
34573;SDS011;20809;49.594;8.734;2023-04-24T17:51:17;3.78;;;2.40;;
34573;SDS011;20809;49.594;8.734;2023-04-24T17:54:18;2.72;;;2.28;;
34573;SDS011;20809;49.594;8.734;2023-04-24T17:57:25;3.25;;;2.95;;
34573;SDS011;20809;49.594;8.734;2023-04-24T18:00:29;5.88;;;3.15;;
34573;SDS011;20809;49.594;8.734;2023-04-24T18:03:33;3.88;;;2.42;;
34573;SDS011;20809;49.594;8.734;2023-04-24T18:06:35;3.25;;;2.22;;
34573;SDS011;20809;49.594;8.734;2023-04-24T18:09:38;3.10;;;1.92;;
34573;SDS011;20809;49.594;8.734;2023-04-24T18:12:40;3.22;;;2.50;;
34573;SDS011;20809;49.594;8.734;2023-04-24T18:15:45;3.15;;;2.25;;
34573;SDS011;20809;49.594;8.734;2023-04-24T18:18:46;2.30;;;2.10;;
34573;SDS011;20809;49.594;8.734;2023-04-24T18:21:47;2.65;;;1.95;;
34573;SDS011;20809;49.594;8.734;2023-04-24T18:24:48;2.83;;;2.53;;
34573;SDS011;20809;49.594;8.734;2023-04-24T18:27:52;2.95;;;2.67;;
34573;SDS011;20809;49.594;8.734;2023-04-24T18:30:54;4.68;;;2.78;;
34573;SDS011;20809;49.594;8.734;2023-04-24T18:33:55;2.88;;;2.65;;
34573;SDS011;20809;49.594;8.734;2023-04-24T18:36:56;3.47;;;3.17;;
34573;SDS011;20809;49.594;8.734;2023-04-24T18:39:57;3.95;;;2.70;;
34573;SDS011;20809;49.594;8.734;2023-04-24T18:42:58;2.83;;;2.35;;
34573;SDS011;20809;49.594;8.734;2023-04-24T18:45:59;4.10;;;2.38;;
34573;SDS011;20809;49.594;8.734;2023-04-24T18:49:00;4.68;;;2.95;;
34573;SDS011;20809;49.594;8.734;2023-04-24T18:52:01;6.03;;;3.28;;
34573;SDS011;20809;49.594;8.734;2023-04-24T18:55:02;4.13;;;2.95;;
34573;SDS011;20809;49.594;8.734;2023-04-24T18:58:03;5.65;;;3.13;;
34573;SDS011;20809;49.594;8.734;2023-04-24T19:01:04;6.32;;;3.15;;
34573;SDS011;20809;49.594;8.734;2023-04-24T19:04:05;6.65;;;3.63;;
34573;SDS011;20809;49.594;8.734;2023-04-24T19:07:06;4.05;;;3.50;;
34573;SDS011;20809;49.594;8.734;2023-04-24T19:10:07;4.22;;;3.63;;
34573;SDS011;20809;49.594;8.734;2023-04-24T19:16:09;5.57;;;4.47;;
34573;SDS011;20809;49.594;8.734;2023-04-24T19:19:10;4.38;;;3.83;;
34573;SDS011;20809;49.594;8.734;2023-04-24T19:22:10;5.53;;;4.53;;